createdAt,value
2019-03-24T00:01:01.040Z,21.40
2019-03-24T00:03:29.674Z,17.40
2019-03-24T00:05:59.542Z,17.80
2019-03-24T00:08:28.128Z,19.43
2019-03-24T00:10:57.445Z,17.57
2019-03-24T00:13:26.778Z,17.57
2019-03-24T00:15:56.088Z,16.73
2019-03-24T00:18:24.899Z,18.37
2019-03-24T00:20:53.481Z,18.40
2019-03-24T00:23:22.769Z,15.83
2019-03-24T00:25:52.073Z,17.33
2019-03-24T00:28:23.463Z,19.50
2019-03-24T00:30:52.830Z,15.27
2019-03-24T00:33:22.221Z,18.45
2019-03-24T00:35:51.780Z,17.40
2019-03-24T00:38:21.069Z,16.47
2019-03-24T00:40:49.726Z,16.63
2019-03-24T00:43:19.026Z,18.52
2019-03-24T00:45:48.412Z,19.95
2019-03-24T00:48:17.805Z,17.77
2019-03-24T00:50:47.252Z,17.85
2019-03-24T00:53:16.557Z,17.32
2019-03-24T00:55:45.872Z,15.05
2019-03-24T00:58:14.449Z,16.05
2019-03-24T01:00:45.408Z,15.83
2019-03-24T01:03:15.361Z,16.62
2019-03-24T01:05:44.437Z,18.45
2019-03-24T01:08:13.998Z,17.95
2019-03-24T01:10:43.401Z,16.17
2019-03-24T01:13:14.187Z,16.77
2019-03-24T01:15:48.082Z,16.30
2019-03-24T01:18:14.832Z,17.87
2019-03-24T01:20:43.491Z,17.80
2019-03-24T01:23:12.875Z,18.02
2019-03-24T01:25:42.440Z,18.70
2019-03-24T01:28:11.734Z,17.82
2019-03-24T01:30:40.402Z,17.07
2019-03-24T01:33:10.036Z,19.60
2019-03-24T01:35:38.800Z,15.58
2019-03-24T01:38:08.106Z,18.32
2019-03-24T01:40:37.407Z,16.15
2019-03-24T01:43:06.006Z,16.00
2019-03-24T01:45:35.310Z,18.42
2019-03-24T01:48:04.066Z,15.63
2019-03-24T01:50:33.369Z,17.85
2019-03-24T01:53:01.977Z,20.15
2019-03-24T01:55:30.557Z,17.12
2019-03-24T01:57:59.985Z,17.27
2019-03-24T02:00:29.362Z,21.00
2019-03-24T02:02:58.669Z,14.15
2019-03-24T02:05:27.974Z,15.70
2019-03-24T02:07:57.293Z,16.95
2019-03-24T02:10:25.963Z,16.23
2019-03-24T02:12:54.554Z,17.80
2019-03-24T02:15:24.182Z,18.05
2019-03-24T02:17:53.495Z,14.30
2019-03-24T02:20:22.795Z,17.70
2019-03-24T02:22:52.097Z,16.65
2019-03-24T02:25:21.463Z,17.62
2019-03-24T02:27:50.765Z,16.62
2019-03-24T02:30:20.152Z,19.65
2019-03-24T02:32:49.460Z,17.62
2019-03-24T02:35:19.044Z,16.45
2019-03-24T02:37:47.703Z,16.23
2019-03-24T02:40:17.165Z,18.92
2019-03-24T02:42:45.755Z,20.00
2019-03-24T02:45:15.703Z,17.85
2019-03-24T02:47:45.014Z,19.10
2019-03-24T02:50:14.569Z,19.62
2019-03-24T02:52:43.954Z,18.20
2019-03-24T02:55:13.395Z,19.12
2019-03-24T02:57:42.707Z,19.90
2019-03-24T03:00:11.458Z,18.42
2019-03-24T03:02:40.939Z,18.30
2019-03-24T03:05:09.746Z,18.45
2019-03-24T03:07:39.070Z,18.27
2019-03-24T03:10:07.945Z,18.37
2019-03-24T03:12:36.526Z,19.37
2019-03-24T03:15:06.969Z,17.53
2019-03-24T03:17:35.551Z,19.90
2019-03-24T03:20:06.919Z,18.60
2019-03-24T03:22:35.494Z,19.20
2019-03-24T03:25:04.440Z,19.57
2019-03-24T03:27:33.086Z,19.83
2019-03-24T03:30:02.459Z,19.23
2019-03-24T03:32:31.742Z,19.57
2019-03-24T03:35:01.327Z,21.23
2019-03-24T03:37:29.894Z,20.23
2019-03-24T03:39:59.194Z,20.40
2019-03-24T03:42:27.846Z,19.53
2019-03-24T03:44:57.149Z,19.13
2019-03-24T03:47:25.727Z,20.20
2019-03-24T03:49:55.030Z,19.00
2019-03-24T03:52:24.329Z,18.57
2019-03-24T03:54:53.618Z,19.70
2019-03-24T03:57:22.934Z,17.93
2019-03-24T03:59:52.491Z,19.27
2019-03-24T04:02:21.070Z,19.27
2019-03-24T04:04:49.658Z,20.43
2019-03-24T04:07:19.014Z,21.87
2019-03-24T04:09:47.626Z,18.77
2019-03-24T04:12:16.194Z,22.60
2019-03-24T04:14:45.533Z,21.03
2019-03-24T04:17:14.865Z,19.37
2019-03-24T04:19:44.161Z,19.63
2019-03-24T04:22:13.509Z,22.13
2019-03-24T04:24:43.081Z,21.40
2019-03-24T04:27:12.374Z,20.67
2019-03-24T04:29:41.672Z,22.83
2019-03-24T04:32:10.971Z,20.87
2019-03-24T04:34:39.569Z,21.10
2019-03-24T04:37:08.868Z,22.37
2019-03-24T04:39:37.437Z,19.80
2019-03-24T04:42:06.072Z,21.57
2019-03-24T04:44:35.405Z,22.93
2019-03-24T04:47:04.350Z,22.43
2019-03-24T04:49:32.914Z,23.13
2019-03-24T04:52:01.613Z,22.70
2019-03-24T04:54:30.908Z,21.53
2019-03-24T04:57:00.690Z,21.83
2019-03-24T04:59:29.977Z,21.33
2019-03-24T05:01:58.648Z,23.90
2019-03-24T05:04:28.014Z,22.43
2019-03-24T05:06:57.513Z,23.37
2019-03-24T05:09:26.789Z,22.13
2019-03-24T05:11:56.101Z,22.63
2019-03-24T05:14:24.673Z,20.17
2019-03-24T05:16:53.972Z,21.93
2019-03-24T05:19:23.257Z,22.97
2019-03-24T05:21:52.567Z,21.77
2019-03-24T05:24:21.133Z,23.87
2019-03-24T05:26:49.789Z,21.37
2019-03-24T05:29:18.647Z,21.37
2019-03-24T05:31:48.017Z,21.70
2019-03-24T05:34:16.606Z,23.60
2019-03-24T05:36:45.909Z,21.50
2019-03-24T05:39:14.489Z,20.80
2019-03-24T05:41:43.797Z,20.13
2019-03-24T05:44:13.081Z,20.33
2019-03-24T05:46:42.377Z,22.23
2019-03-24T05:49:11.665Z,21.03
2019-03-24T05:51:40.973Z,20.73
2019-03-24T05:54:09.561Z,22.43
2019-03-24T05:56:38.869Z,22.23
2019-03-24T05:59:07.432Z,24.70
2019-03-24T06:01:36.737Z,23.80
2019-03-24T06:04:06.110Z,24.33
2019-03-24T06:06:35.685Z,22.30
2019-03-24T06:09:05.577Z,24.13
2019-03-24T06:11:34.228Z,23.00
2019-03-24T06:14:03.602Z,19.07
2019-03-24T06:16:32.165Z,20.63
2019-03-24T06:19:00.742Z,22.90
2019-03-24T06:21:30.122Z,21.13
2019-03-24T06:23:59.412Z,21.03
2019-03-24T06:26:28.958Z,20.20
2019-03-24T06:28:58.254Z,21.40
2019-03-24T06:31:26.837Z,21.13
2019-03-24T06:33:55.421Z,20.60
2019-03-24T06:36:24.793Z,19.53
2019-03-24T06:38:54.090Z,21.23
2019-03-24T06:41:23.373Z,19.73
2019-03-24T06:43:51.958Z,22.27
2019-03-24T06:46:21.261Z,20.70
2019-03-24T06:48:50.553Z,21.93
2019-03-24T06:51:19.873Z,20.93
2019-03-24T06:53:49.170Z,21.43
2019-03-24T06:56:18.469Z,19.53
2019-03-24T06:58:47.049Z,20.87
2019-03-24T07:01:16.345Z,22.90
2019-03-24T07:03:45.897Z,20.60
2019-03-24T07:06:15.178Z,20.60
2019-03-24T07:08:44.005Z,19.90
2019-03-24T07:11:13.932Z,20.30
2019-03-24T07:13:43.397Z,20.80
2019-03-24T07:16:11.993Z,21.33
2019-03-24T07:18:41.545Z,19.73
2019-03-24T07:21:10.117Z,21.47
2019-03-24T07:23:39.461Z,21.87
2019-03-24T07:26:08.873Z,21.60
2019-03-24T07:28:38.172Z,22.70
2019-03-24T07:31:07.468Z,23.77
2019-03-24T07:33:36.875Z,22.00
2019-03-24T07:36:05.461Z,21.90
2019-03-24T07:38:35.022Z,22.20
2019-03-24T07:41:03.609Z,20.90
2019-03-24T07:43:34.426Z,21.47
2019-03-24T07:46:02.993Z,20.23
2019-03-24T07:48:31.600Z,21.87
2019-03-24T07:51:00.883Z,21.53
2019-03-24T07:53:30.190Z,21.03
2019-03-24T07:55:59.486Z,21.30
2019-03-24T07:58:28.769Z,17.87
2019-03-24T08:00:57.439Z,19.73
2019-03-24T08:03:26.806Z,20.60
2019-03-24T08:05:55.381Z,21.87
2019-03-24T08:08:23.957Z,21.07
2019-03-24T08:10:53.266Z,21.37
2019-03-24T08:13:21.833Z,21.03
2019-03-24T08:15:51.133Z,20.70
2019-03-24T08:18:29.509Z,22.33
2019-03-24T08:20:51.249Z,21.27
2019-03-24T08:23:20.554Z,20.43
2019-03-24T08:25:50.078Z,20.97
2019-03-24T08:28:19.380Z,22.23
2019-03-24T08:30:48.916Z,21.07
2019-03-24T08:33:18.288Z,22.97
2019-03-24T08:35:47.674Z,22.40
2019-03-24T08:38:17.058Z,22.17
2019-03-24T08:40:45.654Z,17.83
2019-03-24T08:43:14.237Z,24.10
2019-03-24T08:45:42.939Z,21.97
2019-03-24T08:48:12.485Z,20.47
2019-03-24T08:50:41.310Z,20.90
2019-03-24T08:53:09.904Z,22.60
2019-03-24T08:55:39.225Z,22.53
2019-03-24T08:58:08.581Z,22.03
2019-03-24T09:00:37.261Z,21.43
2019-03-24T09:03:05.849Z,23.03
2019-03-24T09:05:34.428Z,21.50
2019-03-24T09:08:03.046Z,23.77
2019-03-24T09:10:31.631Z,19.60
2019-03-24T09:13:00.233Z,22.30
2019-03-24T09:15:28.817Z,19.00
2019-03-24T09:17:57.598Z,18.17
2019-03-24T09:20:26.173Z,18.23
2019-03-24T09:22:55.558Z,16.23
2019-03-24T09:25:24.398Z,18.03
2019-03-24T09:27:53.773Z,18.03
2019-03-24T09:30:30.649Z,14.17
2019-03-24T09:32:59.368Z,14.80
2019-03-24T09:35:28.098Z,17.40
2019-03-24T09:37:56.821Z,16.43
2019-03-24T09:40:30.858Z,14.43
2019-03-24T09:43:00.029Z,14.03
2019-03-24T09:45:28.765Z,20.77
2019-03-24T09:47:57.369Z,16.43
2019-03-24T09:50:26.017Z,17.00
2019-03-24T09:52:55.398Z,17.53
2019-03-24T09:55:24.006Z,15.80
2019-03-24T09:57:53.341Z,16.70
2019-03-24T10:00:21.940Z,18.77
2019-03-24T10:02:51.265Z,16.90
2019-03-24T10:05:19.845Z,17.57
2019-03-24T10:07:48.453Z,19.20
2019-03-24T10:10:17.114Z,18.70
2019-03-24T10:12:45.852Z,17.77
2019-03-24T10:15:14.472Z,18.07
2019-03-24T10:17:43.941Z,16.50
2019-03-24T10:20:12.605Z,17.73
2019-03-24T10:22:41.925Z,19.23
2019-03-24T10:25:11.509Z,17.30
2019-03-24T10:27:40.850Z,21.47
2019-03-24T10:30:09.838Z,19.53
2019-03-24T10:32:38.447Z,23.73
2019-03-24T10:35:20.983Z,23.73
2019-03-24T10:37:49.521Z,23.47
2019-03-24T10:40:28.255Z,25.13
2019-03-24T10:42:49.437Z,22.13
2019-03-24T10:45:18.038Z,22.13
2019-03-24T10:47:47.345Z,23.97
2019-03-24T10:50:17.313Z,23.10
2019-03-24T10:52:46.684Z,22.07
2019-03-24T10:55:16.137Z,21.03
2019-03-24T10:57:45.438Z,21.47
2019-03-24T11:00:16.457Z,21.77
2019-03-24T11:02:45.746Z,21.37
2019-03-24T11:05:15.200Z,18.87
2019-03-24T11:07:43.797Z,16.80
2019-03-24T11:10:13.536Z,16.77
2019-03-24T11:12:42.116Z,16.17
2019-03-24T11:15:11.645Z,15.27
2019-03-24T11:17:40.232Z,14.20
2019-03-24T11:20:10.376Z,15.77
2019-03-24T11:22:39.045Z,15.23
2019-03-24T11:25:09.282Z,15.67
2019-03-24T11:27:38.408Z,15.63
2019-03-24T11:30:10.482Z,16.43
2019-03-24T11:32:40.050Z,15.53
2019-03-24T11:35:10.077Z,16.53
2019-03-24T11:37:39.448Z,15.77
2019-03-24T11:40:08.618Z,16.70
2019-03-24T11:42:37.213Z,15.83
2019-03-24T11:45:06.468Z,14.97
2019-03-24T11:47:35.791Z,15.60
2019-03-24T11:50:04.636Z,14.77
2019-03-24T11:52:33.293Z,14.53
2019-03-24T11:55:02.717Z,13.97
2019-03-24T11:57:32.037Z,14.13
2019-03-24T12:00:01.353Z,12.20
2019-03-24T12:02:30.677Z,13.17
2019-03-24T12:05:00.342Z,13.07
2019-03-24T12:07:29.607Z,13.17
2019-03-24T12:09:58.925Z,12.30
2019-03-24T12:12:27.485Z,12.80
2019-03-24T12:14:56.080Z,12.83
2019-03-24T12:17:25.619Z,13.27
2019-03-24T12:19:57.082Z,13.63
2019-03-24T12:22:25.252Z,13.10
2019-03-24T12:24:55.836Z,12.00
2019-03-24T12:27:25.121Z,14.47
2019-03-24T12:29:53.757Z,14.83
2019-03-24T12:32:22.331Z,14.23
2019-03-24T12:34:50.916Z,12.77
2019-03-24T12:37:19.520Z,13.23
2019-03-24T12:39:48.112Z,14.50
2019-03-24T12:42:17.497Z,14.03
2019-03-24T12:44:46.082Z,13.07
2019-03-24T12:47:15.658Z,13.20
2019-03-24T12:49:44.309Z,12.87
2019-03-24T12:52:13.196Z,11.90
2019-03-24T12:54:41.973Z,12.30
2019-03-24T12:57:11.382Z,12.63
2019-03-24T12:59:39.968Z,10.70
2019-03-24T13:02:08.617Z,11.73
2019-03-24T13:04:37.192Z,11.73
2019-03-24T13:07:05.860Z,11.13
2019-03-24T13:09:34.451Z,11.00
2019-03-24T13:12:03.190Z,11.13
2019-03-24T13:14:31.782Z,11.33
2019-03-24T13:17:00.372Z,10.50
2019-03-24T13:19:28.993Z,10.57
2019-03-24T13:21:57.586Z,10.37
2019-03-24T13:24:26.234Z,10.50
2019-03-24T13:26:55.519Z,6.70
2019-03-24T13:29:24.114Z,6.97
2019-03-24T13:31:52.678Z,5.80
2019-03-24T13:34:21.266Z,6.83
2019-03-24T13:36:50.011Z,6.30
2019-03-24T13:39:18.581Z,5.90
2019-03-24T13:41:47.874Z,5.97
2019-03-24T13:44:16.465Z,6.53
2019-03-24T13:46:45.797Z,8.10
2019-03-24T13:49:14.445Z,8.43
2019-03-24T13:51:43.013Z,8.90
2019-03-24T13:54:11.673Z,8.80
2019-03-24T13:56:41.151Z,8.30
2019-03-24T13:59:11.014Z,9.20
2019-03-24T14:01:40.645Z,9.57
2019-03-24T14:04:10.105Z,8.20
2019-03-24T14:06:38.681Z,9.43
2019-03-24T14:09:08.571Z,8.70
2019-03-24T14:11:38.046Z,7.67
2019-03-24T14:14:07.349Z,7.07
2019-03-24T14:16:35.932Z,7.17
2019-03-24T14:19:05.325Z,5.97
2019-03-24T14:21:35.086Z,6.43
2019-03-24T14:24:04.474Z,6.47
2019-03-24T14:26:33.833Z,6.13
2019-03-24T14:29:03.134Z,6.07
2019-03-24T14:31:32.411Z,6.47
2019-03-24T14:34:01.709Z,5.80
2019-03-24T14:36:30.992Z,5.00
2019-03-24T14:38:59.581Z,5.53
2019-03-24T14:41:28.869Z,4.63
2019-03-24T14:43:57.449Z,5.20
2019-03-24T14:46:26.109Z,4.80
2019-03-24T14:48:55.452Z,3.93
2019-03-24T14:51:24.736Z,4.20
2019-03-24T14:53:53.409Z,4.10
2019-03-24T14:56:22.789Z,4.60
2019-03-24T14:58:51.440Z,3.77
2019-03-24T15:01:20.732Z,3.33
2019-03-24T15:03:50.181Z,3.80
2019-03-24T15:06:19.481Z,3.40
2019-03-24T15:08:48.150Z,3.60
2019-03-24T15:11:17.590Z,2.80
2019-03-24T15:13:46.152Z,3.57
2019-03-24T15:16:14.716Z,3.40
2019-03-24T15:18:44.077Z,2.70
2019-03-24T15:21:13.362Z,2.90
2019-03-24T15:23:42.752Z,2.60
2019-03-24T15:26:11.329Z,2.90
2019-03-24T15:28:40.623Z,2.30
2019-03-24T15:31:09.901Z,3.13
2019-03-24T15:33:39.178Z,2.83
2019-03-24T15:36:08.466Z,2.70
2019-03-24T15:38:37.769Z,2.63
2019-03-24T15:41:07.153Z,2.60
2019-03-24T15:43:36.530Z,2.40
2019-03-24T15:46:06.666Z,2.50
2019-03-24T15:48:35.981Z,3.10
2019-03-24T15:51:16.074Z,1.60
2019-03-24T15:53:36.391Z,1.90
2019-03-24T15:56:06.140Z,1.53
2019-03-24T15:58:35.439Z,2.03
2019-03-24T16:01:04.886Z,2.00
2019-03-24T16:03:34.177Z,2.57
2019-03-24T16:06:03.557Z,1.80
2019-03-24T16:08:32.926Z,2.23
2019-03-24T16:11:02.351Z,1.80
2019-03-24T16:13:31.651Z,2.03
2019-03-24T16:16:01.033Z,1.30
2019-03-24T16:18:30.323Z,1.77
2019-03-24T16:20:59.630Z,2.77
2019-03-24T16:23:28.937Z,2.40
2019-03-24T16:25:58.496Z,2.10
2019-03-24T16:28:27.777Z,1.60
2019-03-24T16:30:57.097Z,1.27
2019-03-24T16:33:25.691Z,1.30
2019-03-24T16:35:54.314Z,1.87
2019-03-24T16:38:23.937Z,1.97
2019-03-24T16:40:52.494Z,2.03
2019-03-24T16:43:21.100Z,1.83
2019-03-24T16:45:49.673Z,2.23
2019-03-24T16:48:18.241Z,1.63
2019-03-24T16:50:47.534Z,1.53
2019-03-24T16:53:17.124Z,1.23
2019-03-24T16:55:45.691Z,1.93
2019-03-24T16:58:14.253Z,1.53
2019-03-24T17:00:42.817Z,1.77
2019-03-24T17:03:11.416Z,1.70
2019-03-24T17:05:40.730Z,2.53
2019-03-24T17:08:10.021Z,2.13
2019-03-24T17:10:38.585Z,1.87
2019-03-24T17:13:07.881Z,2.10
2019-03-24T17:15:37.298Z,1.70
2019-03-24T17:18:06.985Z,1.90
2019-03-24T17:20:36.375Z,1.30
2019-03-24T17:23:05.864Z,1.47
2019-03-24T17:25:35.229Z,1.57
2019-03-24T17:28:04.749Z,1.87
2019-03-24T17:30:34.205Z,1.60
2019-03-24T17:33:03.621Z,1.00
2019-03-24T17:35:33.172Z,1.40
2019-03-24T17:38:02.474Z,1.00
2019-03-24T17:40:31.761Z,1.30
2019-03-24T17:43:01.058Z,1.37
2019-03-24T17:45:30.416Z,1.50
2019-03-24T17:47:59.734Z,1.10
2019-03-24T17:50:29.125Z,1.60
2019-03-24T17:52:58.426Z,1.47
2019-03-24T17:55:29.923Z,1.47
2019-03-24T17:57:58.886Z,2.10
2019-03-24T18:00:42.783Z,1.50
2019-03-24T18:03:12.425Z,1.10
2019-03-24T18:05:41.755Z,2.23
2019-03-24T18:08:11.150Z,1.10
2019-03-24T18:10:40.441Z,2.20
2019-03-24T18:13:09.854Z,1.37
2019-03-24T18:15:39.270Z,1.40
2019-03-24T18:18:08.621Z,4.07
2019-03-24T18:20:38.087Z,1.53
2019-03-24T18:23:07.573Z,1.57
2019-03-24T18:25:37.069Z,1.50
2019-03-24T18:28:06.453Z,1.93
2019-03-24T18:30:35.771Z,1.63
2019-03-24T18:33:05.126Z,1.77
2019-03-24T18:35:33.733Z,1.40
2019-03-24T18:38:03.052Z,1.80
2019-03-24T18:40:32.328Z,2.17
2019-03-24T18:43:00.981Z,1.80
2019-03-24T18:45:29.556Z,2.20
2019-03-24T18:47:58.969Z,2.43
2019-03-24T18:50:28.269Z,1.60
2019-03-24T18:52:57.645Z,2.60
2019-03-24T18:55:27.017Z,2.47
2019-03-24T18:57:56.416Z,1.23
2019-03-24T19:00:25.062Z,0.97
2019-03-24T19:02:54.344Z,1.77
2019-03-24T19:05:23.733Z,2.90
2019-03-24T19:07:53.026Z,4.73
2019-03-24T19:10:21.693Z,1.57
2019-03-24T19:12:50.284Z,2.60
2019-03-24T19:15:19.658Z,3.07
2019-03-24T19:17:48.977Z,4.03
2019-03-24T19:20:18.930Z,2.87
2019-03-24T19:22:48.205Z,2.23
2019-03-24T19:25:16.788Z,1.93
2019-03-24T19:27:46.093Z,2.47
2019-03-24T19:30:15.821Z,2.10
2019-03-24T19:32:45.518Z,2.00
2019-03-24T19:35:15.081Z,2.98
2019-03-24T19:37:45.119Z,1.70
2019-03-24T19:40:25.048Z,1.60
2019-03-24T19:42:54.497Z,1.33
2019-03-24T19:45:24.077Z,1.80
2019-03-24T19:47:53.465Z,2.00
2019-03-24T19:50:22.933Z,1.27
2019-03-24T19:52:52.281Z,1.35
2019-03-24T19:55:21.738Z,1.87
2019-03-24T19:57:51.180Z,1.47
2019-03-24T20:00:20.657Z,1.65
2019-03-24T20:02:49.976Z,1.67
2019-03-24T20:05:19.377Z,1.17
2019-03-24T20:07:48.669Z,1.60
2019-03-24T20:10:18.041Z,1.07
2019-03-24T20:12:47.457Z,1.37
2019-03-24T20:15:16.249Z,1.20
2019-03-24T20:17:45.644Z,1.67
2019-03-24T20:20:15.293Z,1.62
2019-03-24T20:22:55.593Z,2.40
2019-03-24T20:25:16.326Z,1.72
2019-03-24T20:27:44.961Z,1.87
2019-03-24T20:30:13.748Z,2.55
2019-03-24T20:32:43.221Z,1.60
2019-03-24T20:35:14.527Z,1.17
2019-03-24T20:37:43.316Z,1.60
2019-03-24T20:40:12.909Z,1.95
2019-03-24T20:42:42.450Z,1.42
2019-03-24T20:45:13.263Z,2.42
2019-03-24T20:47:42.758Z,1.75
2019-03-24T20:50:12.393Z,2.15
2019-03-24T20:52:41.716Z,1.22
2019-03-24T20:55:11.464Z,1.57
2019-03-24T20:57:41.134Z,1.65
2019-03-24T21:00:11.049Z,1.87
2019-03-24T21:02:40.493Z,1.80
2019-03-24T21:05:11.185Z,1.25
2019-03-24T21:07:40.739Z,1.50
2019-03-24T21:10:10.345Z,2.15
2019-03-24T21:12:39.739Z,1.72
2019-03-24T21:15:11.270Z,1.90
2019-03-24T21:17:39.769Z,1.95
2019-03-24T21:20:09.403Z,1.67
2019-03-24T21:22:41.741Z,1.40
2019-03-24T21:25:11.175Z,1.27
2019-03-24T21:27:40.481Z,1.60
2019-03-24T21:30:09.994Z,2.42
2019-03-24T21:32:39.313Z,1.82
2019-03-24T21:35:08.870Z,1.57
2019-03-24T21:37:37.469Z,1.72
2019-03-24T21:40:08.362Z,1.15
2019-03-24T21:42:37.715Z,1.10
2019-03-24T21:45:06.537Z,1.20
2019-03-24T21:47:35.866Z,1.27
2019-03-24T21:50:05.677Z,1.30
2019-03-24T21:52:35.277Z,2.05
2019-03-24T21:55:05.067Z,2.35
2019-03-24T21:57:33.777Z,1.60
2019-03-24T22:00:03.100Z,1.57
2019-03-24T22:02:32.460Z,1.55
2019-03-24T22:05:01.792Z,1.60
2019-03-24T22:07:31.184Z,1.75
2019-03-24T22:10:00.711Z,1.80
2019-03-24T22:12:30.150Z,1.27
2019-03-24T22:14:59.501Z,1.90
2019-03-24T22:17:28.986Z,1.42
2019-03-24T22:19:58.405Z,2.60
2019-03-24T22:22:27.794Z,1.87
2019-03-24T22:24:57.216Z,1.70
2019-03-24T22:27:26.681Z,2.30
2019-03-24T22:29:55.315Z,3.20
2019-03-24T22:32:24.825Z,1.47
2019-03-24T22:34:54.287Z,1.70
2019-03-24T22:37:23.675Z,1.70
2019-03-24T22:39:53.326Z,2.42
2019-03-24T22:42:22.811Z,1.87
2019-03-24T22:44:52.378Z,1.98
2019-03-24T22:47:21.845Z,1.42
2019-03-24T22:49:50.456Z,1.60
2019-03-24T22:52:20.401Z,2.02
2019-03-24T22:54:49.813Z,1.62
2019-03-24T22:57:19.224Z,2.10
2019-03-24T22:59:48.762Z,1.47
2019-03-24T23:02:17.568Z,2.08
2019-03-24T23:04:46.901Z,1.90
2019-03-24T23:07:15.803Z,2.52
2019-03-24T23:09:45.295Z,2.30
2019-03-24T23:12:14.594Z,2.20
2019-03-24T23:14:44.195Z,1.80
2019-03-24T23:17:13.781Z,7.03
2019-03-24T23:19:43.116Z,2.85
2019-03-24T23:22:12.525Z,2.75
2019-03-24T23:24:41.969Z,1.82
2019-03-24T23:27:11.367Z,1.75
2019-03-24T23:29:40.749Z,2.30
2019-03-24T23:32:10.181Z,30.88
2019-03-24T23:34:39.510Z,7.83
2019-03-24T23:37:08.814Z,3.27
2019-03-24T23:39:38.385Z,4.92
2019-03-24T23:42:07.754Z,2.95
2019-03-24T23:44:37.037Z,2.92
2019-03-24T23:47:06.413Z,2.47
2019-03-24T23:49:35.717Z,4.55
2019-03-24T23:52:05.105Z,2.33
2019-03-24T23:54:34.705Z,2.40
2019-03-24T23:57:04.082Z,1.90
2019-03-24T23:59:33.644Z,1.85
